METAR UND TAF INFORMATION
LFBL 161100Z AUTO 33007KT 300V360 9999 FEW007/// SCT012/// BKN017/// ///CB 18/17 Q1018 NOSIG

 FLUGHAFENKARTE

 RUNWAY INFORMATION
Runway 03 Runway length 8202 ft Runway width 148 ft
Runway elevation 1273 ft Runway displaced threshold 0 ft Runway heading 34
Runway 21 Runway length 8202 ft Runway width 148 ft
Runway elevation 1275 ft Runway displaced threshold 196 ft Runway heading 214

 AIRPORT FREQUENCIES
Type APP Name LIMOGES AP Frequency 119.2 MHZ
Type ATIS Name ATIS Frequency 128.075 MHZ
Type INFO Name LIMOGES IN Frequency 124.05 MHZ
Type TWR Name LIMOGES TW Frequency 118.7 MHZ

 AIRPORT NEAR NAVIGATION AIDS
Type VOR-DME Name Limoges Frequency 114500 KHZ